Time;durP1;ratioP1;P1;durP2;ratioP2;P2;SDS_P1;SDS_P2;PMS_P1;PMS_P2;Temp;Humidity;BMP_temperature;BMP_pressure;BME280_temperature;BME280_humidity;BME280_pressure;Samples;Min_cycle;Max_cycle;Signal;HPM_P1;HPM_P2
2022/03/27 02:26:08;;;;;;;22.77;15.75;;;;;;;6.39;100.00;103133.84;4648777;30;20580;-77
2022/03/27 02:32:33;;;;;;;24.65;16.77;;;;;;;6.82;100.00;103203.63;4649030;30;20485;-77
2022/03/27 02:35:19;;;;;;;23.13;16.60;;;;;;;5.82;100.00;103028.25;4648435;30;20458;-77
2022/03/27 02:37:47;;;;;;;24.80;16.50;;;;;;;6.51;100.00;103143.16;4648408;30;20105;-77
2022/03/27 02:44:04;;;;;;;23.77;17.08;;;;;;;6.90;100.00;103194.13;4648638;30;20046;-76
2022/03/27 03:00:42;;;;;;;21.40;15.25;;;;;;;5.76;100.00;103006.06;4648403;30;20055;-77
2022/03/27 03:31:25;;;;;;;21.02;15.25;;;;;;;6.09;100.00;103034.03;4651126;30;20061;-76
2022/03/27 03:33:52;;;;;;;25.13;16.42;;;;;;;6.55;100.00;103102.03;4651388;30;20043;-77
2022/03/27 03:36:18;;;;;;;20.33;15.30;;;;;;;6.99;100.00;103176.94;4650991;30;20366;-78
2022/03/27 03:38:44;;;;;;;20.30;15.68;;;;;;;6.99;100.00;103172.66;4649867;30;20067;-77
2022/03/27 03:41:09;;;;;;;21.45;16.23;;;;;;;6.98;100.00;103168.38;4651065;30;20520;-77
2022/03/27 03:43:39;;;;;;;20.73;15.80;;;;;;;6.88;100.00;103151.34;4651175;30;20077;-77
2022/03/27 03:46:04;;;;;;;20.65;15.43;;;;;;;6.56;100.00;103097.75;4650966;30;20031;-78
2022/03/27 03:48:30;;;;;;;22.17;17.10;;;;;;;6.86;100.00;103141.09;4651222;30;20404;-77
2022/03/27 03:50:56;;;;;;;20.48;15.25;;;;;;;6.69;100.00;103113.91;4650874;30;20039;-77
2022/03/27 03:53:21;;;;;;;21.23;15.93;;;;;;;6.81;100.00;103142.00;4650961;30;20054;-76
2022/03/27 03:55:47;;;;;;;19.52;15.15;;;;;;;6.67;100.00;103111.31;4651126;30;20042;-78
2022/03/27 03:58:12;;;;;;;19.33;14.93;;;;;;;6.69;100.00;103124.16;4651089;30;20450;-77
2022/03/27 04:00:38;;;;;;;19.13;14.70;;;;;;;6.48;100.00;103102.94;4650997;30;20042;-77
2022/03/27 04:03:03;;;;;;;22.35;15.82;;;;;;;6.70;100.00;103143.84;4650913;30;20046;-76
2022/03/27 04:05:29;;;;;;;21.85;15.93;;;;;;;6.61;100.00;103137.06;4650737;30;20039;-77
2022/03/27 04:07:54;;;;;;;21.85;16.70;;;;;;;6.66;100.00;103142.16;4649690;30;20035;-77
2022/03/27 04:10:20;;;;;;;21.85;16.38;;;;;;;6.63;100.00;103142.19;4650545;30;20420;-77
2022/03/27 04:12:48;;;;;;;23.98;18.08;;;;;;;6.86;100.00;103173.63;4650927;30;20050;-78
2022/03/27 04:15:14;;;;;;;24.92;18.20;;;;;;;6.80;100.00;103169.41;4650759;30;20094;-77
2022/03/27 04:17:47;;;;;;;22.92;16.92;;;;;;;6.66;100.00;103144.72;4650734;30;20069;-77
2022/03/27 04:20:13;;;;;;;23.00;17.42;;;;;;;6.56;100.00;103128.56;4650310;30;20043;-77
2022/03/27 04:22:40;;;;;;;23.92;17.15;;;;;;;6.81;100.00;103165.13;4650444;30;20089;-77
2022/03/27 04:25:06;;;;;;;24.60;18.33;;;;;;;6.89;100.00;103179.59;4650427;30;20125;-77
2022/03/27 04:27:31;;;;;;;22.38;16.15;;;;;;;6.68;100.00;103132.72;4650344;30;20035;-77
2022/03/27 04:29:57;;;;;;;21.05;15.95;;;;;;;6.90;100.00;103171.03;4650213;30;20062;-77
2022/03/27 04:32:22;;;;;;;22.20;18.15;;;;;;;6.81;100.00;103162.56;4649830;30;20031;-77
2022/03/27 04:34:50;;;;;;;21.50;16.20;;;;;;;6.81;100.00;103171.13;4650360;30;20039;-77
2022/03/27 04:37:18;;;;;;;24.50;17.08;;;;;;;6.79;100.00;103172.84;4650005;30;20137;-77
2022/03/27 04:39:44;;;;;;;25.90;18.80;;;;;;;6.78;100.00;103175.41;4649981;30;20047;-78
2022/03/27 04:42:14;;;;;;;22.20;16.35;;;;;;;6.78;100.00;103178.81;4649057;30;20504;-77
2022/03/27 04:44:43;;;;;;;23.25;16.48;;;;;;;6.76;100.00;103180.56;4650052;30;20489;-77
2022/03/27 04:47:11;;;;;;;24.20;17.98;;;;;;;6.31;100.00;103117.66;4650157;30;20035;-78
2022/03/27 04:49:37;;;;;;;24.60;17.20;;;;;;;6.55;100.00;103161.06;4650073;30;20114;-77
2022/03/27 04:52:03;;;;;;;22.08;16.38;;;;;;;6.55;100.00;103162.78;4649584;30;20090;-77
2022/03/27 04:54:30;;;;;;;24.23;17.75;;;;;;;6.59;100.00;103173.03;4650184;30;20042;-77
2022/03/27 04:56:55;;;;;;;25.02;18.13;;;;;;;6.67;100.00;103177.22;4650087;30;20552;-77
2022/03/27 04:59:21;;;;;;;25.63;18.30;;;;;;;6.49;100.00;103156.00;4650079;30;20042;-77
2022/03/27 05:01:49;;;;;;;23.50;17.10;;;;;;;6.67;100.00;103184.94;4649831;30;20042;-77
2022/03/27 05:04:14;;;;;;;23.30;17.77;;;;;;;6.53;100.00;103162.81;4649830;30;20441;-77
2022/03/27 05:06:40;;;;;;;23.55;17.70;;;;;;;6.50;100.00;103162.00;4649363;30;20038;-77
2022/03/27 05:09:05;;;;;;;24.27;17.52;;;;;;;6.48;100.00;103166.25;4649587;30;20056;-77
2022/03/27 05:11:30;;;;;;;24.58;18.02;;;;;;;6.35;100.00;103142.44;4649675;30;20035;-83
2022/03/27 05:13:56;;;;;;;24.45;16.50;;;;;;;6.66;100.00;103191.78;4649837;30;20035;-78
2022/03/27 05:16:22;;;;;;;24.17;17.65;;;;;;;6.65;100.00;103197.78;4649596;30;20505;-78
2022/03/27 05:18:48;;;;;;;25.20;17.02;;;;;;;6.43;100.00;103165.47;4647994;30;20085;-78
2022/03/27 05:21:14;;;;;;;25.52;17.50;;;;;;;6.42;100.00;103172.31;4649550;30;20031;-77
2022/03/27 05:23:39;;;;;;;23.83;16.83;;;;;;;6.44;100.00;103174.88;4648826;30;20046;-78
2022/03/27 05:26:05;;;;;;;21.60;15.98;;;;;;;6.30;100.00;103162.16;4649304;30;20397;-76
2022/03/27 05:28:32;;;;;;;22.50;15.80;;;;;;;6.37;100.00;103179.19;4649300;30;20234;-78
2022/03/27 05:30:57;;;;;;;21.95;15.30;;;;;;;6.34;100.00;103179.22;4649571;30;20042;-77
2022/03/27 05:33:26;;;;;;;24.20;17.13;;;;;;;6.39;100.00;103192.88;4649332;30;20035;-77
2022/03/27 05:35:51;;;;;;;23.25;15.77;;;;;;;6.35;100.00;103186.06;4649337;30;20042;-77
2022/03/27 05:38:16;;;;;;;22.98;15.50;;;;;;;6.40;100.00;103193.72;4649020;30;20030;-76
2022/03/27 05:40:42;;;;;;;22.27;14.55;;;;;;;6.41;100.00;103196.28;4649548;30;20489;-77
2022/03/27 05:43:07;;;;;;;22.73;14.85;;;;;;;6.45;100.00;103197.94;4649113;30;20050;-79
2022/03/27 05:45:34;;;;;;;21.52;15.00;;;;;;;6.46;100.00;103197.09;4648024;30;20047;-86
2022/03/27 05:48:00;;;;;;;24.08;15.43;;;;;;;6.24;100.00;103164.75;4649053;30;20046;-83
2022/03/27 05:50:28;;;;;;;22.85;16.25;;;;;;;6.47;100.00;103201.34;4649321;30;20039;-83
2022/03/27 05:52:54;;;;;;;22.38;15.48;;;;;;;6.33;100.00;103182.66;4649044;30;20548;-78
2022/03/27 05:55:21;;;;;;;22.90;15.10;;;;;;;6.45;100.00;103202.22;4647412;30;20202;-84
2022/03/27 05:57:49;;;;;;;19.92;13.73;;;;;;;6.43;100.00;103204.81;4649128;30;20141;-77
2022/03/27 06:00:20;;;;;;;21.38;14.63;;;;;;;6.34;100.00;103204.88;4648940;30;20261;-76
2022/03/27 06:02:46;;;;;;;20.25;13.63;;;;;;;6.17;100.00;103188.75;4648766;30;20050;-83
2022/03/27 06:05:11;;;;;;;24.15;16.00;;;;;;;6.32;100.00;103222.88;4648955;30;20385;-86
2022/03/27 06:07:48;;;;;;;21.83;14.48;;;;;;;6.14;100.00;103192.19;4648737;30;20035;-85
2022/03/27 06:10:15;;;;;;;23.48;14.43;;;;;;;6.19;100.00;103210.09;4648894;30;20507;-85
2022/03/27 06:12:43;;;;;;;21.60;13.57;;;;;;;6.23;100.00;103214.38;4648778;30;20038;-76
2022/03/27 06:15:09;;;;;;;20.05;13.65;;;;;;;6.20;100.00;103222.09;4648629;30;20034;-82
2022/03/27 06:17:42;;;;;;;23.70;14.93;;;;;;;6.00;100.00;103194.00;4648714;30;20074;-79
2022/03/27 06:20:09;;;;;;;23.45;14.35;;;;;;;6.23;100.00;103237.47;4647007;30;20142;-78
2022/03/27 06:22:34;;;;;;;21.75;13.77;;;;;;;5.96;100.00;103182.91;4648202;30;20038;-78
2022/03/27 06:25:00;;;;;;;22.77;13.95;;;;;;;6.26;100.00;103240.84;4648521;30;20076;-78
2022/03/27 06:27:25;;;;;;;24.83;13.95;;;;;;;6.28;100.00;103238.28;4648627;30;20073;-78
2022/03/27 06:29:53;;;;;;;23.98;14.77;;;;;;;5.76;100.00;103149.66;4648305;30;20087;-77
2022/03/27 06:32:19;;;;;;;22.52;14.68;;;;;;;6.33;100.00;103239.97;4648562;30;20035;-77
2022/03/27 06:34:44;;;;;;;26.38;16.55;;;;;;;6.33;100.00;103234.81;4648485;30;20081;-83
2022/03/27 06:37:09;;;;;;;21.88;14.35;;;;;;;6.36;100.00;103227.97;4648324;30;20121;-82
2022/03/27 06:39:35;;;;;;;24.17;14.82;;;;;;;6.43;100.00;103234.75;4648133;30;20182;-78
2022/03/27 06:42:00;;;;;;;25.13;15.32;;;;;;;6.45;100.00;103241.59;4646898;30;20435;-81
2022/03/27 06:44:25;;;;;;;23.55;14.75;;;;;;;6.46;100.00;103238.16;4648469;30;20477;-80
2022/03/27 06:46:50;;;;;;;26.67;15.25;;;;;;;6.31;100.00;103217.75;4648348;30;20035;-80
2022/03/27 06:49:16;;;;;;;23.95;14.55;;;;;;;6.35;100.00;103227.13;4648225;30;20034;-78
2022/03/27 06:51:41;;;;;;;22.27;13.95;;;;;;;6.43;100.00;103233.06;4648204;30;20031;-76
2022/03/27 06:54:07;;;;;;;24.40;14.07;;;;;;;6.39;100.00;103238.19;4649025;30;20054;-82
2022/03/27 06:56:33;;;;;;;27.10;15.20;;;;;;;6.42;100.00;103239.06;4648225;30;20042;-77
2022/03/27 06:58:58;;;;;;;28.48;15.27;;;;;;;6.38;100.00;103232.22;4648054;30;20059;-77
2022/03/27 07:04:24;;;;;;;23.25;14.50;;;;;;;6.27;100.00;103213.47;4629583;31;20043;-77
2022/03/27 07:06:49;;;;;;;24.65;14.85;;;;;;;6.30;100.00;103226.31;4629244;31;20062;-77
2022/03/27 07:09:15;;;;;;;22.25;14.63;;;;;;;6.38;100.00;103242.47;4614937;31;20039;-77
2022/03/27 07:11:40;;;;;;;23.25;15.05;;;;;;;6.37;100.00;103238.22;4629022;31;20561;-77
2022/03/27 07:14:07;;;;;;;26.05;15.25;;;;;;;6.29;100.00;103224.56;4629200;31;20043;-76
2022/03/27 07:16:34;;;;;;;23.17;14.18;;;;;;;6.45;100.00;103245.88;4629282;31;20057;-76
2022/03/27 07:19:00;;;;;;;22.67;14.10;;;;;;;6.18;100.00;103198.16;4629406;31;20043;-75
2022/03/27 07:21:25;;;;;;;23.55;14.00;;;;;;;6.39;100.00;103223.69;4629248;31;20102;-73
2022/03/27 07:23:50;;;;;;;18.83;12.20;;;;;;;6.58;100.00;103234.63;4615129;31;20036;-75
2022/03/27 07:26:17;;;;;;;20.80;12.82;;;;;;;6.44;99.34;103205.66;4629073;31;20055;-78
2022/03/27 07:28:45;;;;;;;22.00;12.95;;;;;;;6.67;98.79;103229.44;4628774;30;20528;-75
2022/03/27 07:31:11;;;;;;;19.05;12.05;;;;;;;6.70;98.01;103215.75;4629209;31;20047;-76
2022/03/27 07:33:37;;;;;;;17.95;11.60;;;;;;;6.79;97.00;103238.78;4629137;31;20083;-77
2022/03/27 07:36:03;;;;;;;25.98;12.27;;;;;;;6.84;97.27;103234.44;4629194;31;20386;-76
2022/03/27 07:38:29;;;;;;;18.58;12.43;;;;;;;6.94;96.83;103228.34;4639374;30;20062;-76
2022/03/27 07:40:55;;;;;;;19.80;12.93;;;;;;;7.01;96.40;103211.16;4647619;30;20122;-77
2022/03/27 07:43:21;;;;;;;17.70;12.10;;;;;;;7.19;95.39;103234.09;4647998;30;20038;-76
2022/03/27 07:45:46;;;;;;;16.80;12.18;;;;;;;7.23;94.90;103230.63;4647955;30;20481;-76
2022/03/27 07:48:11;;;;;;;19.58;12.73;;;;;;;7.30;94.49;103227.13;4647910;30;20118;-77
2022/03/27 07:50:37;;;;;;;17.83;11.80;;;;;;;7.17;93.58;103187.84;4647795;30;20066;-77
2022/03/27 07:53:04;;;;;;;20.52;12.75;;;;;;;7.37;93.25;103238.19;4647981;30;20038;-76
2022/03/27 07:55:30;;;;;;;17.85;12.02;;;;;;;7.40;93.49;103235.59;4647406;30;20031;-76
2022/03/27 07:57:57;;;;;;;19.42;12.80;;;;;;;7.32;92.82;103214.25;4648192;30;20039;-77
2022/03/27 08:00:23;;;;;;;17.45;12.63;;;;;;;7.33;93.01;103200.53;4647715;30;20070;-77
2022/03/27 08:02:48;;;;;;;18.73;12.23;;;;;;;7.60;92.37;103237.94;4647696;30;20066;-77
2022/03/27 08:05:13;;;;;;;17.08;12.52;;;;;;;7.62;92.16;103223.34;4647777;30;20094;-80
2022/03/27 08:07:39;;;;;;;18.15;12.68;;;;;;;7.56;91.55;103208.81;4649167;30;20026;-78
2022/03/27 08:10:06;;;;;;;16.88;12.38;;;;;;;7.82;91.43;103223.06;4651286;30;20038;-76
2022/03/27 08:12:31;;;;;;;17.83;12.68;;;;;;;7.78;90.08;103193.97;4650405;30;20444;-77
2022/03/27 08:14:56;;;;;;;17.83;12.65;;;;;;;8.12;89.58;103237.25;4650478;30;20051;-80
2022/03/27 08:17:25;;;;;;;16.38;11.82;;;;;;;8.01;88.62;103215.09;4650127;30;20049;-76
2022/03/27 08:19:51;;;;;;;16.17;12.00;;;;;;;7.87;88.35;103198.16;4650384;30;20046;-76
2022/03/27 08:22:20;;;;;;;15.93;11.45;;;;;;;7.84;89.36;103209.31;4664786;25;20420;-76
2022/03/27 08:24:46;;;;;;;15.55;11.38;;;;;;;7.95;88.99;103227.19;4682594;25;20623;-76
2022/03/27 08:27:20;;;;;;;15.38;11.05;;;;;;;7.53;89.15;103164.31;4666792;30;20088;-77
2022/03/27 08:29:46;;;;;;;16.02;11.93;;;;;;;8.01;88.88;103237.41;4667283;30;20034;-80
2022/03/27 08:32:15;;;;;;;18.35;12.25;;;;;;;8.03;88.48;103245.94;4667490;30;20038;-76
2022/03/27 08:34:43;;;;;;;16.48;12.52;;;;;;;7.99;87.81;103245.13;4667301;30;20034;-76
2022/03/27 08:37:10;;;;;;;15.57;11.35;;;;;;;7.76;88.03;103211.97;4666620;30;20058;-74
2022/03/27 08:39:53;;;;;;;15.82;10.80;;;;;;;7.28;87.52;103107.22;4719199;25;20539;-79
2022/03/27 08:42:27;;;;;;;15.13;10.85;;;;;;;7.78;86.79;103191.41;4684372;30;20093;-77
2022/03/27 08:45:11;;;;;;;15.82;11.07;;;;;;;7.74;86.50;103182.00;4683662;30;20034;-74
2022/03/27 08:47:48;;;;;;;15.43;10.45;;;;;;;7.32;85.24;103071.19;4683410;30;20038;-77
2022/03/27 08:50:44;;;;;;;14.13;11.00;;;;;;;7.78;84.59;103096.25;4683497;30;20034;-75
2022/03/27 08:56:38;;;;;;;16.08;11.00;;;;;;;9.14;80.15;103178.88;4698752;30;20034;-73
2022/03/27 08:59:46;;;;;;;13.80;10.70;;;;;;;9.81;81.59;103241.16;4699250;30;20412;-75
2022/03/27 09:02:13;;;;;;;13.38;10.13;;;;;;;9.79;78.20;103241.19;4699177;30;20052;-78
2022/03/27 09:04:39;;;;;;;12.98;10.13;;;;;;;9.41;77.98;103214.44;4684769;30;20115;-77
2022/03/27 09:07:07;;;;;;;12.05;9.63;;;;;;;9.45;78.85;103229.00;4699232;30;20091;-77
2022/03/27 09:09:35;;;;;;;13.00;10.13;;;;;;;9.42;78.44;103243.66;4698702;30;20048;-78
2022/03/27 09:12:03;;;;;;;12.35;10.20;;;;;;;9.05;78.65;103207.44;4698472;30;20123;-76
2022/03/27 09:14:31;;;;;;;12.45;9.55;;;;;;;8.53;78.73;103172.28;4684491;30;20044;-77
2022/03/27 09:17:05;;;;;;;12.85;10.15;;;;;;;8.50;80.34;103175.75;4698182;30;20041;-78
2022/03/27 09:19:44;;;;;;;13.70;10.25;;;;;;;8.46;80.32;103189.56;4698810;30;20143;-76
2022/03/27 09:22:14;;;;;;;13.82;10.00;;;;;;;8.50;79.83;103224.69;4698953;30;20042;-78
2022/03/27 09:24:49;;;;;;;13.90;10.33;;;;;;;8.31;80.98;103184.63;4698947;30;20061;-77
2022/03/27 09:27:15;;;;;;;13.63;10.15;;;;;;;8.66;80.25;103243.31;4698509;30;20304;-77
2022/03/27 09:30:09;;;;;;;14.60;10.57;;;;;;;8.62;81.04;103239.94;4698105;30;20057;-76
2022/03/27 09:32:45;;;;;;;14.52;10.95;;;;;;;8.54;81.66;103228.03;4695150;30;20038;-79
2022/03/27 09:35:14;;;;;;;16.63;10.40;;;;;;;8.69;80.84;103237.25;4683410;30;20026;-77
2022/03/27 09:37:47;;;;;;;12.85;10.63;;;;;;;8.53;81.01;103211.75;4681960;30;20403;-78
2022/03/27 09:40:15;;;;;;;14.38;11.50;;;;;;;8.74;82.30;103232.88;4683172;30;20300;-79
2022/03/27 09:42:44;;;;;;;13.45;10.77;;;;;;;8.40;81.07;103183.66;4683298;30;20062;-78
2022/03/27 09:49:14;;;;;;;;;;;;;;;8.81;81.81;103219.88;4630765;30;20051;-77
2022/03/27 09:51:54;;;;;;;16.63;10.75;;;;;;;8.54;81.68;103145.63;4630261;31;19931;-78
2022/03/27 09:54:19;;;;;;;14.77;10.85;;;;;;;8.71;80.89;103159.06;4630116;30;20050;-83
2022/03/27 10:00:30;;;;;;;15.27;10.97;;;;;;;9.27;79.84;103206.16;4629910;30;20046;-80
2022/03/27 10:03:09;;;;;;;16.67;12.30;;;;;;;9.24;80.40;103190.72;4630119;30;20327;-86
2022/03/27 10:05:34;;;;;;;15.18;11.70;;;;;;;9.35;79.09;103199.13;4630045;31;20039;-87
2022/03/27 10:08:01;;;;;;;15.32;11.05;;;;;;;9.05;78.62;103146.44;4630126;30;20054;-78
2022/03/27 10:10:27;;;;;;;16.00;11.63;;;;;;;9.30;79.46;103174.28;4630119;30;20529;-86
2022/03/27 10:12:54;;;;;;;15.32;11.98;;;;;;;9.34;79.94;103166.47;4629663;31;20047;-76
2022/03/27 10:15:26;;;;;;;14.15;10.40;;;;;;;9.41;78.05;103165.44;4633802;30;20489;-77
2022/03/27 10:17:53;;;;;;;;;;;;;;;9.66;79.91;103189.00;4649796;30;20550;-80
2022/03/27 10:20:21;;;;;;;14.65;11.07;;;;;;;9.69;78.27;103172.59;4680312;30;20384;-84
2022/03/27 10:23:01;;;;;;;15.85;11.55;;;;;;;9.91;78.70;103176.41;4682708;30;20034;-79
2022/03/27 10:25:37;;;;;;;14.82;10.85;;;;;;;10.06;78.02;103178.63;4682691;30;20096;-79
2022/03/27 10:28:07;;;;;;;13.57;11.00;;;;;;;10.19;76.38;103170.59;4682149;30;20038;-74
2022/03/27 10:30:33;;;;;;;13.38;10.63;;;;;;;10.20;76.20;103165.41;4682053;30;20050;-78
2022/03/27 10:33:01;;;;;;;13.88;10.57;;;;;;;10.30;75.08;103172.06;4682589;30;20045;-77
2022/03/27 10:35:57;;;;;;;13.10;10.55;;;;;;;9.83;74.64;103098.28;4682722;30;20120;-81
2022/03/27 10:39:08;;;;;;;14.40;10.98;;;;;;;10.34;75.48;103163.38;4682606;30;20034;-77
2022/03/27 10:42:09;;;;;;;11.03;8.57;;;;;;;10.48;75.12;103163.03;4682166;30;20046;-77
2022/03/27 10:45:17;;;;;;;14.25;9.60;;;;;;;10.52;74.95;103159.50;4646508;30;20050;-78
2022/03/27 10:48:12;;;;;;;11.95;9.27;;;;;;;10.74;73.85;103146.84;4629363;31;20074;-77
2022/03/27 10:50:55;;;;;;;11.30;8.88;;;;;;;10.85;71.71;103152.56;4629476;31;20039;-77
2022/03/27 10:53:22;;;;;;;11.85;8.70;;;;;;;10.75;69.82;103121.84;4629315;31;20494;-77
2022/03/27 10:55:52;;;;;;;11.75;9.23;;;;;;;10.99;69.26;103146.16;4629473;31;20047;-79
2022/03/27 10:58:49;;;;;;;10.27;8.10;;;;;;;10.90;68.73;103137.78;4629045;31;20194;-77
2022/03/27 11:01:21;;;;;;;10.32;8.13;;;;;;;11.02;67.95;103141.78;4615144;31;20410;-77
2022/03/27 11:04:50;;;;;;;10.57;8.48;;;;;;;11.12;69.35;103144.97;4629390;31;20067;-77
2022/03/27 11:07:21;;;;;;;10.82;8.02;;;;;;;10.81;67.75;103072.56;4579497;31;20053;-76
2022/03/27 11:09:47;;;;;;;11.52;9.32;;;;;;;10.45;66.77;103002.94;4578827;31;20048;-75
2022/03/27 11:12:24;;;;;;;11.88;8.70;;;;;;;11.50;67.29;103143.81;4579128;31;20053;-77
2022/03/27 11:14:53;;;;;;;12.65;9.15;;;;;;;11.56;65.65;103140.22;4579437;31;20048;-78
2022/03/27 11:17:47;;;;;;;10.60;7.82;;;;;;;11.63;66.76;103140.00;4579498;31;20055;-77
2022/03/27 11:20:33;;;;;;;10.55;7.85;;;;;;;11.70;66.56;103136.31;4579378;31;20049;-76
2022/03/27 11:23:00;;;;;;;9.23;6.63;;;;;;;11.75;63.36;103125.81;4579425;31;20053;-76
2022/03/27 11:25:37;;;;;;;8.68;6.50;;;;;;;11.85;61.87;103121.22;4624951;31;20083;-78
2022/03/27 11:28:16;;;;;;;9.13;6.97;;;;;;;11.76;61.80;103093.84;4628958;31;20040;-81
2022/03/27 11:30:47;;;;;;;10.23;7.32;;;;;;;12.00;61.62;103119.00;4629377;31;20063;-77
2022/03/27 11:33:18;;;;;;;9.45;6.25;;;;;;;12.07;58.82;103115.31;4629199;31;20043;-82
2022/03/27 12:30:07;;;;;;;7.60;4.90;;;;;;;13.19;52.59;103055.19;4667590;30;20541;-83
2022/03/27 14:24:15;;;;;;;5.05;3.15;;;;;;;14.14;39.48;102956.94;4682888;30;20202;-86
2022/03/27 14:42:33;;;;;;;6.53;3.97;;;;;;;14.07;40.37;102918.25;4645829;30;20059;-83
2022/03/27 15:01:15;;;;;;;6.35;3.95;;;;;;;13.17;40.51;102742.19;4648910;30;20078;-84
2022/03/27 15:07:12;;;;;;;8.30;4.47;;;;;;;13.85;40.08;102847.38;4612563;31;20051;-83
2022/03/27 15:09:57;;;;;;;6.85;3.30;;;;;;;13.34;40.59;102765.69;4612443;31;20115;-83
2022/03/27 16:41:06;;;;;;;7.93;3.22;;;;;;;13.85;43.81;102847.38;4650322;30;20118;-77
2022/03/27 16:49:59;;;;;;;7.75;4.43;;;;;;;13.14;44.25;102748.38;4651077;30;19964;-79
2022/03/27 16:52:24;;;;;;;7.78;3.45;;;;;;;13.73;44.95;102837.53;4649975;30;20070;-79
2022/03/27 16:54:55;;;;;;;6.68;3.95;;;;;;;13.69;44.89;102839.44;4649860;30;20034;-78
2022/03/27 16:57:23;;;;;;;10.02;4.60;;;;;;;13.45;45.20;102802.41;4648790;30;20038;-79
2022/03/27 16:59:48;;;;;;;6.47;4.15;;;;;;;13.27;45.23;102766.03;4649787;30;20062;-80
2022/03/27 17:02:14;;;;;;;8.07;4.13;;;;;;;13.48;45.99;102814.41;4651926;30;20067;-79
2022/03/27 17:04:40;;;;;;;11.38;4.32;;;;;;;13.55;45.67;102825.34;4666693;30;20030;-79
2022/03/27 17:07:24;;;;;;;;;;;;;;;;;;;;;
2022/03/27 17:13:25;;;;;;;7.53;4.32;;;;;;;13.24;47.05;102816.28;4666464;30;20470;-78
2022/03/27 17:16:43;;;;;;;8.32;4.32;;;;;;;13.31;47.56;102830.72;4666381;30;20096;-79
2022/03/27 17:19:12;;;;;;;11.18;4.35;;;;;;;12.64;47.33;102737.53;4666426;30;20044;-78
2022/03/27 17:25:31;;;;;;;8.68;3.50;;;;;;;13.11;47.98;102830.66;4666647;30;20097;-78
2022/03/27 17:35:05;;;;;;;7.55;4.00;;;;;;;12.46;49.15;102774.56;4664980;30;20129;-79
2022/03/27 17:37:39;;;;;;;9.02;4.38;;;;;;;12.39;49.98;102786.94;4666194;30;20042;-80
2022/03/27 17:40:08;;;;;;;10.48;4.43;;;;;;;12.24;50.23;102787.50;4666431;30;20038;-78
2022/03/27 17:42:34;;;;;;;9.35;4.25;;;;;;;12.52;50.13;102834.78;4666547;30;20039;-80
2022/03/27 17:44:59;;;;;;;9.13;4.53;;;;;;;12.47;50.67;102828.06;4666037;30;20034;-78
2022/03/27 17:47:24;;;;;;;8.10;4.05;;;;;;;12.37;51.01;102829.31;4665934;30;20038;-81
2022/03/27 17:49:50;;;;;;;10.48;4.68;;;;;;;12.21;51.40;102816.13;4665838;30;20062;-79
2022/03/27 17:52:16;;;;;;;8.35;4.07;;;;;;;12.11;52.87;102820.81;4666080;30;20030;-81
2022/03/27 17:54:42;;;;;;;10.30;4.68;;;;;;;12.07;52.67;102835.59;4664985;30;20042;-79
2022/03/27 17:57:08;;;;;;;8.52;4.60;;;;;;;11.82;53.62;102810.69;4665886;30;20045;-79
2022/03/27 17:59:36;;;;;;;8.25;4.95;;;;;;;11.74;54.08;102826.47;4664582;30;20027;-77
2022/03/27 18:02:02;;;;;;;9.82;4.40;;;;;;;11.76;53.56;102828.09;4665523;30;20473;-79
2022/03/27 18:04:28;;;;;;;8.27;3.92;;;;;;;11.60;54.29;102826.09;4665962;30;20130;-78
2022/03/27 18:06:54;;;;;;;8.05;4.10;;;;;;;11.53;54.55;102827.22;4665612;30;20038;-79
2022/03/27 18:09:19;;;;;;;7.18;4.13;;;;;;;11.20;55.27;102797.28;4665780;30;20044;-79
2022/03/27 18:11:45;;;;;;;10.15;4.05;;;;;;;11.24;55.46;102829.06;4665607;30;20050;-75
2022/03/27 18:14:11;;;;;;;9.27;4.35;;;;;;;11.04;56.54;102811.63;4665656;30;20073;-79
2022/03/27 18:16:42;;;;;;;10.38;4.55;;;;;;;11.11;57.20;102846.75;4649885;30;20509;-78
2022/03/27 18:19:12;;;;;;;;;;;;;;;11.00;56.32;102848.81;4665969;30;20041;-80
2022/03/27 18:21:38;;;;;;;8.73;4.60;;;;;;;10.82;59.21;102839.09;4665544;30;19919;-78
2022/03/27 18:24:03;;;;;;;11.98;4.75;;;;;;;10.38;60.52;102806.88;4665371;30;20037;-78
2022/03/27 18:26:29;;;;;;;9.88;4.85;;;;;;;10.20;61.66;102803.91;4665361;30;20050;-79
2022/03/27 18:28:56;;;;;;;13.43;5.10;;;;;;;10.22;60.30;102812.47;4665428;30;20038;-78
2022/03/27 18:31:22;;;;;;;10.10;4.80;;;;;;;10.33;62.67;102846.59;4665306;30;20045;-78
2022/03/27 18:33:51;;;;;;;14.23;5.40;;;;;;;10.05;62.48;102823.28;4650357;30;20034;-80
2022/03/27 18:36:17;;;;;;;11.95;5.07;;;;;;;9.80;63.19;102808.53;4649697;30;20041;-79
2022/03/27 18:38:42;;;;;;;9.65;4.68;;;;;;;9.97;63.99;102853.63;4665367;30;20026;-78
2022/03/27 18:41:08;;;;;;;15.20;4.85;;;;;;;9.80;63.62;102832.59;4665272;30;20481;-78
2022/03/27 18:43:35;;;;;;;19.08;7.55;;;;;;;9.81;64.95;102854.09;4665441;30;20034;-79
2022/03/27 18:46:03;;;;;;;13.60;5.80;;;;;;;9.54;63.79;102806.66;4665154;30;20484;-79
2022/03/27 18:48:32;;;;;;;11.82;5.13;;;;;;;9.69;64.62;102834.63;4665158;30;20031;-79
2022/03/27 18:51:00;;;;;;;13.48;5.63;;;;;;;9.88;63.55;102866.78;4664342;30;20097;-78
2022/03/27 18:53:25;;;;;;;14.20;5.32;;;;;;;9.66;63.90;102843.31;4665022;30;20039;-80
2022/03/27 18:55:51;;;;;;;11.63;5.28;;;;;;;9.82;64.34;102861.78;4665191;30;20100;-82
2022/03/27 18:58:19;;;;;;;12.68;5.10;;;;;;;9.75;65.25;102868.03;4665169;30;20045;-80
2022/03/27 19:00:44;;;;;;;20.58;5.15;;;;;;;9.60;65.37;102858.09;4664732;30;20050;-79
2022/03/27 19:03:15;;;;;;;11.77;4.95;;;;;;;9.61;65.95;102862.38;4665015;30;20051;-80
2022/03/27 19:05:41;;;;;;;12.00;5.63;;;;;;;9.26;65.73;102812.56;4665241;30;20054;-79
2022/03/27 19:08:07;;;;;;;12.20;5.00;;;;;;;9.31;66.87;102846.81;4664880;30;20077;-79
2022/03/27 19:10:32;;;;;;;15.10;6.05;;;;;;;9.47;66.31;102861.00;4665162;30;20034;-80
2022/03/27 19:12:57;;;;;;;16.52;6.03;;;;;;;9.33;66.79;102850.19;4665039;30;20115;-79
2022/03/27 19:15:23;;;;;;;17.38;6.13;;;;;;;9.35;66.40;102845.00;4664978;30;20514;-77
2022/03/27 19:17:52;;;;;;;12.10;6.38;;;;;;;9.34;66.37;102844.16;4664895;30;20053;-80
2022/03/27 19:20:30;;;;;;;11.68;5.82;;;;;;;9.27;66.84;102852.09;4665182;30;20125;-86
2022/03/27 19:23:04;;;;;;;11.73;5.55;;;;;;;9.29;67.28;102873.50;4664631;30;20039;-79
2022/03/27 19:25:31;;;;;;;11.75;6.03;;;;;;;9.12;67.16;102832.69;4664947;30;20383;-78
2022/03/27 19:27:57;;;;;;;13.15;6.50;;;;;;;9.16;67.28;102853.19;4649529;30;20038;-78
2022/03/27 19:30:22;;;;;;;11.70;5.47;;;;;;;9.00;68.27;102843.28;4664799;30;20089;-79
2022/03/27 19:32:48;;;;;;;12.68;6.85;;;;;;;8.59;67.96;102773.00;4665046;30;20038;-79
2022/03/27 19:35:14;;;;;;;11.18;6.30;;;;;;;9.18;68.03;102863.47;4664592;30;20046;-80
2022/03/27 19:37:39;;;;;;;13.43;7.13;;;;;;;9.04;68.18;102847.47;4664887;30;20549;-79
2022/03/27 19:40:08;;;;;;;12.55;5.97;;;;;;;8.77;69.63;102834.38;4664937;30;20399;-80
2022/03/27 19:42:42;;;;;;;11.93;5.70;;;;;;;8.26;69.96;102754.00;4664844;30;20042;-80
2022/03/27 19:45:11;;;;;;;14.63;6.05;;;;;;;8.60;69.52;102806.44;4665137;30;20109;-80
2022/03/27 19:47:37;;;;;;;12.68;5.68;;;;;;;8.60;69.51;102816.75;4664948;30;20392;-80
2022/03/27 19:50:05;;;;;;;11.57;5.60;;;;;;;8.65;70.28;102842.38;4664822;30;20031;-81
2022/03/27 19:52:31;;;;;;;14.57;5.72;;;;;;;8.68;70.69;102854.34;4664514;30;20058;-84
2022/03/27 19:54:56;;;;;;;13.52;5.50;;;;;;;8.41;70.62;102819.75;4664701;30;20058;-79
2022/03/27 19:57:22;;;;;;;11.50;5.93;;;;;;;8.41;70.48;102800.00;4664625;30;20027;-79
2022/03/27 19:59:51;;;;;;;11.48;6.38;;;;;;;8.60;70.72;102846.81;4664573;30;20097;-78
2022/03/27 20:02:17;;;;;;;12.85;6.28;;;;;;;8.41;70.87;102817.19;4666551;30;20564;-78
2022/03/27 20:04:43;;;;;;;11.15;6.07;;;;;;;8.04;71.31;102774.19;4667565;30;20113;-78
2022/03/27 20:07:08;;;;;;;12.20;6.20;;;;;;;8.29;71.12;102806.25;4667759;30;20030;-77
2022/03/27 20:09:37;;;;;;;14.23;6.05;;;;;;;8.02;71.71;102781.94;4651968;30;20068;-82